METAR Data
IDs: Format: Raw Decoded Include TAF

Data at: 1852 UTC 22 May 2019

KELA 221835Z AUTO 16015G21KT 10SM BKN033 BKN039 31/24 A2982 RMK AO2 T03100235